sensor_id;sensor_type;location;lat;lon;timestamp;temperature;humidity
24744;DHT22;12844;52.110;5.548;2023-08-17T00:02:11;25.10;58.80
24744;DHT22;12844;52.110;5.548;2023-08-17T00:04:37;25.10;58.80
24744;DHT22;12844;52.110;5.548;2023-08-17T00:07:03;25.10;58.80
24744;DHT22;12844;52.110;5.548;2023-08-17T00:09:29;25.10;58.80
24744;DHT22;12844;52.110;5.548;2023-08-17T00:11:54;25.10;58.80
24744;DHT22;12844;52.110;5.548;2023-08-17T00:14:20;25.10;58.80
24744;DHT22;12844;52.110;5.548;2023-08-17T00:16:45;25.10;58.80
24744;DHT22;12844;52.110;5.548;2023-08-17T00:19:11;25.10;58.80
24744;DHT22;12844;52.110;5.548;2023-08-17T00:21:37;25.10;58.80
24744;DHT22;12844;52.110;5.548;2023-08-17T00:24:03;25.10;58.80
24744;DHT22;12844;52.110;5.548;2023-08-17T00:26:29;25.10;58.80
24744;DHT22;12844;52.110;5.548;2023-08-17T00:28:55;25.10;58.80
24744;DHT22;12844;52.110;5.548;2023-08-17T00:31:20;25.10;58.80
24744;DHT22;12844;52.110;5.548;2023-08-17T00:33:46;25.10;58.80
24744;DHT22;12844;52.110;5.548;2023-08-17T00:36:11;25.10;58.80
24744;DHT22;12844;52.110;5.548;2023-08-17T00:38:37;25.00;58.70
24744;DHT22;12844;52.110;5.548;2023-08-17T00:41:02;25.10;58.80
24744;DHT22;12844;52.110;5.548;2023-08-17T00:43:28;25.10;58.80
24744;DHT22;12844;52.110;5.548;2023-08-17T00:45:53;25.10;58.80
24744;DHT22;12844;52.110;5.548;2023-08-17T00:48:19;25.10;58.80
24744;DHT22;12844;52.110;5.548;2023-08-17T00:50:47;25.00;58.70
24744;DHT22;12844;52.110;5.548;2023-08-17T00:53:14;25.10;58.70
24744;DHT22;12844;52.110;5.548;2023-08-17T00:55:41;25.00;58.70
24744;DHT22;12844;52.110;5.548;2023-08-17T00:58:07;25.00;58.70
24744;DHT22;12844;52.110;5.548;2023-08-17T01:00:33;25.10;58.80
24744;DHT22;12844;52.110;5.548;2023-08-17T01:02:58;25.10;58.70
24744;DHT22;12844;52.110;5.548;2023-08-17T01:05:24;25.10;58.70
24744;DHT22;12844;52.110;5.548;2023-08-17T01:07:50;25.00;58.70
24744;DHT22;12844;52.110;5.548;2023-08-17T01:10:16;25.00;58.60
24744;DHT22;12844;52.110;5.548;2023-08-17T01:13:00;25.10;58.70
24744;DHT22;12844;52.110;5.548;2023-08-17T01:15:37;25.10;58.70
24744;DHT22;12844;52.110;5.548;2023-08-17T01:18:28;25.00;58.70
24744;DHT22;12844;52.110;5.548;2023-08-17T01:20:57;25.00;58.60
24744;DHT22;12844;52.110;5.548;2023-08-17T01:23:23;25.00;58.70
24744;DHT22;12844;52.110;5.548;2023-08-17T01:25:49;25.00;58.70
24744;DHT22;12844;52.110;5.548;2023-08-17T01:28:15;25.00;58.70
24744;DHT22;12844;52.110;5.548;2023-08-17T01:33:37;25.10;58.60
24744;DHT22;12844;52.110;5.548;2023-08-17T01:36:30;25.00;58.60
24744;DHT22;12844;52.110;5.548;2023-08-17T01:38:59;25.00;58.60
24744;DHT22;12844;52.110;5.548;2023-08-17T01:41:26;25.00;58.60
24744;DHT22;12844;52.110;5.548;2023-08-17T01:43:52;25.00;58.60
24744;DHT22;12844;52.110;5.548;2023-08-17T01:46:18;25.00;58.60
24744;DHT22;12844;52.110;5.548;2023-08-17T01:48:45;25.00;58.60
24744;DHT22;12844;52.110;5.548;2023-08-17T01:51:16;25.00;58.60
24744;DHT22;12844;52.110;5.548;2023-08-17T01:53:41;25.00;58.60
24744;DHT22;12844;52.110;5.548;2023-08-17T01:56:07;25.00;58.60
24744;DHT22;12844;52.110;5.548;2023-08-17T01:58:32;25.00;58.60
24744;DHT22;12844;52.110;5.548;2023-08-17T02:00:58;25.00;58.50
24744;DHT22;12844;52.110;5.548;2023-08-17T02:03:23;25.00;58.50
24744;DHT22;12844;52.110;5.548;2023-08-17T02:05:49;25.00;58.50
24744;DHT22;12844;52.110;5.548;2023-08-17T02:08:15;25.00;58.50
24744;DHT22;12844;52.110;5.548;2023-08-17T02:10:40;25.00;58.50
24744;DHT22;12844;52.110;5.548;2023-08-17T02:13:06;25.00;58.50
24744;DHT22;12844;52.110;5.548;2023-08-17T02:15:31;25.00;58.50
24744;DHT22;12844;52.110;5.548;2023-08-17T02:18:00;25.00;58.50
24744;DHT22;12844;52.110;5.548;2023-08-17T02:20:26;25.00;58.50
24744;DHT22;12844;52.110;5.548;2023-08-17T02:22:51;25.00;58.50
24744;DHT22;12844;52.110;5.548;2023-08-17T02:25:17;25.00;58.50
24744;DHT22;12844;52.110;5.548;2023-08-17T02:27:42;24.90;59.00
24744;DHT22;12844;52.110;5.548;2023-08-17T02:30:08;24.90;58.40
24744;DHT22;12844;52.110;5.548;2023-08-17T02:32:34;25.00;58.40
24744;DHT22;12844;52.110;5.548;2023-08-17T02:35:00;25.00;58.40
24744;DHT22;12844;52.110;5.548;2023-08-17T02:37:25;25.00;58.40
24744;DHT22;12844;52.110;5.548;2023-08-17T02:39:51;24.90;58.30
24744;DHT22;12844;52.110;5.548;2023-08-17T02:42:17;25.00;58.40
24744;DHT22;12844;52.110;5.548;2023-08-17T02:44:42;25.00;58.40
24744;DHT22;12844;52.110;5.548;2023-08-17T02:47:08;24.90;58.40
24744;DHT22;12844;52.110;5.548;2023-08-17T02:49:33;24.90;58.30
24744;DHT22;12844;52.110;5.548;2023-08-17T02:54:31;25.00;58.40
24744;DHT22;12844;52.110;5.548;2023-08-17T02:56:57;24.90;58.30
24744;DHT22;12844;52.110;5.548;2023-08-17T02:59:23;24.90;58.40
24744;DHT22;12844;52.110;5.548;2023-08-17T03:01:48;24.90;58.40
24744;DHT22;12844;52.110;5.548;2023-08-17T03:04:14;24.90;58.40
24744;DHT22;12844;52.110;5.548;2023-08-17T03:06:40;24.90;58.40
24744;DHT22;12844;52.110;5.548;2023-08-17T03:09:05;24.90;58.40
24744;DHT22;12844;52.110;5.548;2023-08-17T03:11:31;24.90;58.40
24744;DHT22;12844;52.110;5.548;2023-08-17T03:13:56;24.90;58.30
24744;DHT22;12844;52.110;5.548;2023-08-17T03:16:28;24.90;58.30
24744;DHT22;12844;52.110;5.548;2023-08-17T03:18:56;24.90;58.30
24744;DHT22;12844;52.110;5.548;2023-08-17T03:21:22;24.90;58.30
24744;DHT22;12844;52.110;5.548;2023-08-17T03:23:48;24.90;58.30
24744;DHT22;12844;52.110;5.548;2023-08-17T03:26:14;24.90;58.30
24744;DHT22;12844;52.110;5.548;2023-08-17T03:28:40;24.90;58.30
24744;DHT22;12844;52.110;5.548;2023-08-17T03:31:06;24.90;58.30
24744;DHT22;12844;52.110;5.548;2023-08-17T03:33:34;24.90;58.30
24744;DHT22;12844;52.110;5.548;2023-08-17T03:36:00;24.90;58.30
24744;DHT22;12844;52.110;5.548;2023-08-17T03:38:26;24.90;58.30
24744;DHT22;12844;52.110;5.548;2023-08-17T03:40:51;24.90;58.30
24744;DHT22;12844;52.110;5.548;2023-08-17T03:43:17;24.90;58.30
24744;DHT22;12844;52.110;5.548;2023-08-17T03:45:43;24.90;58.30
24744;DHT22;12844;52.110;5.548;2023-08-17T03:48:09;24.90;58.30
24744;DHT22;12844;52.110;5.548;2023-08-17T03:50:34;24.90;58.20
24744;DHT22;12844;52.110;5.548;2023-08-17T03:53:00;24.90;58.20
24744;DHT22;12844;52.110;5.548;2023-08-17T03:55:25;24.90;58.20
24744;DHT22;12844;52.110;5.548;2023-08-17T03:57:51;24.90;58.20
24744;DHT22;12844;52.110;5.548;2023-08-17T04:00:17;24.90;58.20
24744;DHT22;12844;52.110;5.548;2023-08-17T04:02:43;24.80;58.20
24744;DHT22;12844;52.110;5.548;2023-08-17T04:05:08;24.80;58.10
24744;DHT22;12844;52.110;5.548;2023-08-17T04:07:34;24.80;58.10
24744;DHT22;12844;52.110;5.548;2023-08-17T04:10:00;24.80;58.10
24744;DHT22;12844;52.110;5.548;2023-08-17T04:12:25;24.80;58.10
24744;DHT22;12844;52.110;5.548;2023-08-17T04:14:51;24.90;58.20
24744;DHT22;12844;52.110;5.548;2023-08-17T04:17:16;24.80;58.10
24744;DHT22;12844;52.110;5.548;2023-08-17T04:19:42;24.80;58.10
24744;DHT22;12844;52.110;5.548;2023-08-17T04:22:07;24.80;58.10
24744;DHT22;12844;52.110;5.548;2023-08-17T04:24:33;24.90;58.20
24744;DHT22;12844;52.110;5.548;2023-08-17T04:26:58;24.80;58.10
24744;DHT22;12844;52.110;5.548;2023-08-17T04:29:24;24.80;58.10
24744;DHT22;12844;52.110;5.548;2023-08-17T04:31:49;24.80;58.10
24744;DHT22;12844;52.110;5.548;2023-08-17T04:34:15;24.80;58.10
24744;DHT22;12844;52.110;5.548;2023-08-17T04:36:41;24.80;58.10
24744;DHT22;12844;52.110;5.548;2023-08-17T04:39:06;24.80;58.10
24744;DHT22;12844;52.110;5.548;2023-08-17T04:41:32;24.80;58.00
24744;DHT22;12844;52.110;5.548;2023-08-17T04:43:57;24.80;58.00
24744;DHT22;12844;52.110;5.548;2023-08-17T04:46:23;24.80;58.00
24744;DHT22;12844;52.110;5.548;2023-08-17T04:48:48;24.80;58.00
24744;DHT22;12844;52.110;5.548;2023-08-17T04:51:15;24.80;58.00
24744;DHT22;12844;52.110;5.548;2023-08-17T04:53:41;24.80;58.00
24744;DHT22;12844;52.110;5.548;2023-08-17T04:56:06;24.80;58.00
24744;DHT22;12844;52.110;5.548;2023-08-17T04:58:32;24.80;58.00
24744;DHT22;12844;52.110;5.548;2023-08-17T05:00:59;24.80;58.70
24744;DHT22;12844;52.110;5.548;2023-08-17T05:03:24;24.80;58.00
24744;DHT22;12844;52.110;5.548;2023-08-17T05:05:52;24.80;58.00
24744;DHT22;12844;52.110;5.548;2023-08-17T05:08:18;24.80;58.00
24744;DHT22;12844;52.110;5.548;2023-08-17T05:10:44;24.80;58.00
24744;DHT22;12844;52.110;5.548;2023-08-17T05:13:09;24.80;58.00
24744;DHT22;12844;52.110;5.548;2023-08-17T05:15:35;24.80;58.00
24744;DHT22;12844;52.110;5.548;2023-08-17T05:18:00;24.80;58.00
24744;DHT22;12844;52.110;5.548;2023-08-17T05:20:26;24.80;58.00
24744;DHT22;12844;52.110;5.548;2023-08-17T05:22:51;24.80;58.00
24744;DHT22;12844;52.110;5.548;2023-08-17T05:25:17;24.80;58.00
24744;DHT22;12844;52.110;5.548;2023-08-17T05:27:42;24.80;58.00
24744;DHT22;12844;52.110;5.548;2023-08-17T05:30:08;24.80;58.00
24744;DHT22;12844;52.110;5.548;2023-08-17T05:32:33;24.80;58.00
24744;DHT22;12844;52.110;5.548;2023-08-17T05:34:59;24.80;58.00
24744;DHT22;12844;52.110;5.548;2023-08-17T05:37:25;24.80;58.00
24744;DHT22;12844;52.110;5.548;2023-08-17T05:39:50;24.80;58.00
24744;DHT22;12844;52.110;5.548;2023-08-17T05:42:16;24.80;58.00
24744;DHT22;12844;52.110;5.548;2023-08-17T05:44:41;24.80;58.00
24744;DHT22;12844;52.110;5.548;2023-08-17T05:47:07;24.80;58.00
24744;DHT22;12844;52.110;5.548;2023-08-17T05:49:32;24.80;58.00
24744;DHT22;12844;52.110;5.548;2023-08-17T05:51:58;24.80;58.00
24744;DHT22;12844;52.110;5.548;2023-08-17T05:54:23;24.80;58.00
24744;DHT22;12844;52.110;5.548;2023-08-17T05:56:49;24.80;58.00
24744;DHT22;12844;52.110;5.548;2023-08-17T05:59:14;24.80;58.00
24744;DHT22;12844;52.110;5.548;2023-08-17T06:01:40;24.80;58.00
24744;DHT22;12844;52.110;5.548;2023-08-17T06:04:06;24.80;58.00
24744;DHT22;12844;52.110;5.548;2023-08-17T06:06:32;24.80;58.00
24744;DHT22;12844;52.110;5.548;2023-08-17T06:08:58;24.80;58.00
24744;DHT22;12844;52.110;5.548;2023-08-17T06:11:23;24.80;58.00
24744;DHT22;12844;52.110;5.548;2023-08-17T06:13:49;24.80;58.00
24744;DHT22;12844;52.110;5.548;2023-08-17T06:16:15;24.80;58.00
24744;DHT22;12844;52.110;5.548;2023-08-17T06:18:41;24.80;58.00
24744;DHT22;12844;52.110;5.548;2023-08-17T06:21:07;24.80;58.00
24744;DHT22;12844;52.110;5.548;2023-08-17T06:23:33;24.80;58.00
24744;DHT22;12844;52.110;5.548;2023-08-17T06:25:59;24.80;58.00
24744;DHT22;12844;52.110;5.548;2023-08-17T06:28:25;24.80;58.00
24744;DHT22;12844;52.110;5.548;2023-08-17T06:30:55;24.80;57.90
24744;DHT22;12844;52.110;5.548;2023-08-17T06:33:21;24.80;58.00
24744;DHT22;12844;52.110;5.548;2023-08-17T06:35:47;24.80;57.90
24744;DHT22;12844;52.110;5.548;2023-08-17T06:38:13;24.80;58.00
24744;DHT22;12844;52.110;5.548;2023-08-17T06:40:38;24.80;57.90
24744;DHT22;12844;52.110;5.548;2023-08-17T06:43:04;24.80;58.00
24744;DHT22;12844;52.110;5.548;2023-08-17T06:45:31;24.80;58.00
24744;DHT22;12844;52.110;5.548;2023-08-17T06:47:57;24.80;57.90
24744;DHT22;12844;52.110;5.548;2023-08-17T06:50:22;24.80;57.90
24744;DHT22;12844;52.110;5.548;2023-08-17T06:52:48;24.80;58.00
24744;DHT22;12844;52.110;5.548;2023-08-17T06:55:13;24.80;58.00
24744;DHT22;12844;52.110;5.548;2023-08-17T06:57:41;24.80;58.00
24744;DHT22;12844;52.110;5.548;2023-08-17T07:00:07;24.80;58.00
24744;DHT22;12844;52.110;5.548;2023-08-17T07:02:33;24.80;58.00
24744;DHT22;12844;52.110;5.548;2023-08-17T07:05:00;24.80;58.00
24744;DHT22;12844;52.110;5.548;2023-08-17T07:07:25;24.80;58.00
24744;DHT22;12844;52.110;5.548;2023-08-17T07:09:51;24.80;57.90
24744;DHT22;12844;52.110;5.548;2023-08-17T07:12:16;24.80;58.00
24744;DHT22;12844;52.110;5.548;2023-08-17T07:14:42;24.80;57.90
24744;DHT22;12844;52.110;5.548;2023-08-17T07:17:07;24.80;57.90
24744;DHT22;12844;52.110;5.548;2023-08-17T07:19:33;24.80;58.00
24744;DHT22;12844;52.110;5.548;2023-08-17T07:21:58;24.80;58.00
24744;DHT22;12844;52.110;5.548;2023-08-17T07:24:24;24.80;58.00
24744;DHT22;12844;52.110;5.548;2023-08-17T07:26:50;24.70;58.00
24744;DHT22;12844;52.110;5.548;2023-08-17T07:29:15;24.70;57.90
24744;DHT22;12844;52.110;5.548;2023-08-17T07:31:41;24.80;58.00
24744;DHT22;12844;52.110;5.548;2023-08-17T07:34:06;24.70;57.90
24744;DHT22;12844;52.110;5.548;2023-08-17T07:36:32;24.80;58.00
24744;DHT22;12844;52.110;5.548;2023-08-17T07:38:58;24.80;58.00
24744;DHT22;12844;52.110;5.548;2023-08-17T07:41:24;24.80;58.00
24744;DHT22;12844;52.110;5.548;2023-08-17T07:43:50;24.80;58.00
24744;DHT22;12844;52.110;5.548;2023-08-17T07:46:15;24.80;57.90
24744;DHT22;12844;52.110;5.548;2023-08-17T07:48:41;24.80;57.90
24744;DHT22;12844;52.110;5.548;2023-08-17T07:51:06;24.80;57.90
24744;DHT22;12844;52.110;5.548;2023-08-17T07:53:32;24.80;57.90
24744;DHT22;12844;52.110;5.548;2023-08-17T07:55:57;24.80;57.90
24744;DHT22;12844;52.110;5.548;2023-08-17T07:58:23;24.80;57.90
24744;DHT22;12844;52.110;5.548;2023-08-17T08:00:49;24.80;57.90
24744;DHT22;12844;52.110;5.548;2023-08-17T08:03:14;24.80;57.90
24744;DHT22;12844;52.110;5.548;2023-08-17T08:05:40;24.80;57.80
24744;DHT22;12844;52.110;5.548;2023-08-17T08:08:06;24.80;57.90
24744;DHT22;12844;52.110;5.548;2023-08-17T08:10:31;24.80;57.80
24744;DHT22;12844;52.110;5.548;2023-08-17T08:12:57;24.80;57.70
24744;DHT22;12844;52.110;5.548;2023-08-17T08:15:22;24.80;57.70
24744;DHT22;12844;52.110;5.548;2023-08-17T08:17:48;24.80;57.80
24744;DHT22;12844;52.110;5.548;2023-08-17T08:20:13;24.80;57.70
24744;DHT22;12844;52.110;5.548;2023-08-17T08:22:39;24.80;57.80
24744;DHT22;12844;52.110;5.548;2023-08-17T08:25:05;24.80;57.80
24744;DHT22;12844;52.110;5.548;2023-08-17T08:27:30;24.80;57.80
24744;DHT22;12844;52.110;5.548;2023-08-17T08:29:56;24.80;57.80
24744;DHT22;12844;52.110;5.548;2023-08-17T08:32:21;24.80;57.70
24744;DHT22;12844;52.110;5.548;2023-08-17T08:34:47;24.80;57.70
24744;DHT22;12844;52.110;5.548;2023-08-17T08:37:12;24.80;57.70
24744;DHT22;12844;52.110;5.548;2023-08-17T08:39:51;24.80;57.70
24744;DHT22;12844;52.110;5.548;2023-08-17T08:42:18;24.80;57.70
24744;DHT22;12844;52.110;5.548;2023-08-17T08:44:44;24.80;57.80
24744;DHT22;12844;52.110;5.548;2023-08-17T08:47:10;24.80;57.80
24744;DHT22;12844;52.110;5.548;2023-08-17T08:49:39;24.80;57.80
24744;DHT22;12844;52.110;5.548;2023-08-17T08:52:08;24.80;57.80
24744;DHT22;12844;52.110;5.548;2023-08-17T08:54:35;24.80;57.80
24744;DHT22;12844;52.110;5.548;2023-08-17T08:57:03;24.80;57.80
24744;DHT22;12844;52.110;5.548;2023-08-17T08:59:33;24.80;57.80
24744;DHT22;12844;52.110;5.548;2023-08-17T09:01:59;24.80;57.90
24744;DHT22;12844;52.110;5.548;2023-08-17T09:04:25;24.80;57.90
24744;DHT22;12844;52.110;5.548;2023-08-17T09:06:51;24.80;57.90
24744;DHT22;12844;52.110;5.548;2023-08-17T09:09:18;24.80;57.90
24744;DHT22;12844;52.110;5.548;2023-08-17T09:11:43;24.80;57.90
24744;DHT22;12844;52.110;5.548;2023-08-17T09:14:09;24.80;57.90
24744;DHT22;12844;52.110;5.548;2023-08-17T09:16:35;24.80;58.00
24744;DHT22;12844;52.110;5.548;2023-08-17T09:19:01;24.80;57.90
24744;DHT22;12844;52.110;5.548;2023-08-17T09:21:31;24.80;57.90
24744;DHT22;12844;52.110;5.548;2023-08-17T09:23:57;24.80;58.00
24744;DHT22;12844;52.110;5.548;2023-08-17T09:26:23;24.80;57.90
24744;DHT22;12844;52.110;5.548;2023-08-17T09:28:50;24.80;57.90
24744;DHT22;12844;52.110;5.548;2023-08-17T09:31:15;24.80;57.80
24744;DHT22;12844;52.110;5.548;2023-08-17T09:33:41;24.80;57.80
24744;DHT22;12844;52.110;5.548;2023-08-17T09:36:06;24.80;57.80
24744;DHT22;12844;52.110;5.548;2023-08-17T09:38:34;24.80;57.80
24744;DHT22;12844;52.110;5.548;2023-08-17T09:41:03;24.80;57.80
24744;DHT22;12844;52.110;5.548;2023-08-17T09:43:29;24.80;57.80
24744;DHT22;12844;52.110;5.548;2023-08-17T09:45:58;24.80;57.80
24744;DHT22;12844;52.110;5.548;2023-08-17T09:48:25;24.80;57.80
24744;DHT22;12844;52.110;5.548;2023-08-17T09:50:50;24.80;57.80
24744;DHT22;12844;52.110;5.548;2023-08-17T09:53:19;24.80;57.90
24744;DHT22;12844;52.110;5.548;2023-08-17T09:55:45;24.80;57.90
24744;DHT22;12844;52.110;5.548;2023-08-17T09:58:12;24.80;57.90
24744;DHT22;12844;52.110;5.548;2023-08-17T10:00:48;24.80;57.90
24744;DHT22;12844;52.110;5.548;2023-08-17T10:03:15;24.80;58.00
24744;DHT22;12844;52.110;5.548;2023-08-17T10:05:43;24.80;58.00
24744;DHT22;12844;52.110;5.548;2023-08-17T10:08:10;24.80;58.00
24744;DHT22;12844;52.110;5.548;2023-08-17T10:10:40;24.80;58.00
24744;DHT22;12844;52.110;5.548;2023-08-17T10:18:58;24.80;57.90
24744;DHT22;12844;52.110;5.548;2023-08-17T10:21:31;24.70;58.00
24744;DHT22;12844;52.110;5.548;2023-08-17T10:24:02;24.70;58.00
24744;DHT22;12844;52.110;5.548;2023-08-17T10:26:29;24.70;58.00
24744;DHT22;12844;52.110;5.548;2023-08-17T10:28:55;24.70;58.00
24744;DHT22;12844;52.110;5.548;2023-08-17T10:31:24;24.70;58.00
24744;DHT22;12844;52.110;5.548;2023-08-17T10:33:50;24.70;58.00
24744;DHT22;12844;52.110;5.548;2023-08-17T10:36:16;24.80;58.60
24744;DHT22;12844;52.110;5.548;2023-08-17T10:38:42;24.80;58.00
24744;DHT22;12844;52.110;5.548;2023-08-17T10:41:13;24.70;58.20
24744;DHT22;12844;52.110;5.548;2023-08-17T10:43:58;24.80;58.00
24744;DHT22;12844;52.110;5.548;2023-08-17T10:46:37;24.80;57.90
24744;DHT22;12844;52.110;5.548;2023-08-17T10:49:05;24.80;57.90
24744;DHT22;12844;52.110;5.548;2023-08-17T10:51:32;24.80;57.90
24744;DHT22;12844;52.110;5.548;2023-08-17T10:53:59;24.80;58.00
24744;DHT22;12844;52.110;5.548;2023-08-17T10:56:27;24.80;58.00
24744;DHT22;12844;52.110;5.548;2023-08-17T10:58:54;24.80;58.00
24744;DHT22;12844;52.110;5.548;2023-08-17T11:01:36;24.80;58.00
24744;DHT22;12844;52.110;5.548;2023-08-17T11:04:16;24.80;57.90
24744;DHT22;12844;52.110;5.548;2023-08-17T11:06:44;24.80;58.00
24744;DHT22;12844;52.110;5.548;2023-08-17T11:09:09;24.70;57.90
24744;DHT22;12844;52.110;5.548;2023-08-17T11:11:35;24.70;57.90
24744;DHT22;12844;52.110;5.548;2023-08-17T11:14:01;24.70;58.00
24744;DHT22;12844;52.110;5.548;2023-08-17T11:16:26;24.70;57.90
24744;DHT22;12844;52.110;5.548;2023-08-17T11:18:52;24.80;58.00
24744;DHT22;12844;52.110;5.548;2023-08-17T11:21:18;24.80;58.00
24744;DHT22;12844;52.110;5.548;2023-08-17T11:23:44;24.80;58.00
24744;DHT22;12844;52.110;5.548;2023-08-17T11:26:10;24.80;58.00
24744;DHT22;12844;52.110;5.548;2023-08-17T11:28:36;24.80;58.00
24744;DHT22;12844;52.110;5.548;2023-08-17T11:31:04;24.80;58.00
24744;DHT22;12844;52.110;5.548;2023-08-17T11:33:30;24.80;58.00
24744;DHT22;12844;52.110;5.548;2023-08-17T11:36:01;24.80;58.00
24744;DHT22;12844;52.110;5.548;2023-08-17T11:38:30;24.80;58.00
24744;DHT22;12844;52.110;5.548;2023-08-17T11:40:58;24.80;58.00
24744;DHT22;12844;52.110;5.548;2023-08-17T11:43:24;24.80;58.00
24744;DHT22;12844;52.110;5.548;2023-08-17T11:45:51;24.80;58.00
24744;DHT22;12844;52.110;5.548;2023-08-17T11:48:19;24.80;58.00
24744;DHT22;12844;52.110;5.548;2023-08-17T11:50:44;24.80;58.00
24744;DHT22;12844;52.110;5.548;2023-08-17T11:53:10;24.80;58.00
24744;DHT22;12844;52.110;5.548;2023-08-17T11:55:36;24.80;58.00
24744;DHT22;12844;52.110;5.548;2023-08-17T11:58:03;24.80;58.00
24744;DHT22;12844;52.110;5.548;2023-08-17T12:00:35;24.80;58.00
24744;DHT22;12844;52.110;5.548;2023-08-17T12:03:03;24.80;58.00
24744;DHT22;12844;52.110;5.548;2023-08-17T12:05:31;24.80;58.00
24744;DHT22;12844;52.110;5.548;2023-08-17T12:07:57;24.80;58.00
24744;DHT22;12844;52.110;5.548;2023-08-17T12:10:24;24.80;58.00
24744;DHT22;12844;52.110;5.548;2023-08-17T12:12:49;24.80;58.00
24744;DHT22;12844;52.110;5.548;2023-08-17T12:15:16;24.80;58.00
24744;DHT22;12844;52.110;5.548;2023-08-17T12:17:49;24.80;58.00
24744;DHT22;12844;52.110;5.548;2023-08-17T12:20:19;24.80;58.00
24744;DHT22;12844;52.110;5.548;2023-08-17T12:22:47;24.80;58.00
24744;DHT22;12844;52.110;5.548;2023-08-17T12:25:13;24.70;58.00
24744;DHT22;12844;52.110;5.548;2023-08-17T12:27:39;24.80;58.00
24744;DHT22;12844;52.110;5.548;2023-08-17T12:30:11;24.80;58.00
24744;DHT22;12844;52.110;5.548;2023-08-17T12:32:37;24.80;58.00
24744;DHT22;12844;52.110;5.548;2023-08-17T12:35:03;24.80;58.00
24744;DHT22;12844;52.110;5.548;2023-08-17T12:37:29;24.70;58.00
24744;DHT22;12844;52.110;5.548;2023-08-17T12:39:55;24.80;58.00
24744;DHT22;12844;52.110;5.548;2023-08-17T12:42:20;24.70;58.00
24744;DHT22;12844;52.110;5.548;2023-08-17T12:44:46;24.70;58.00
24744;DHT22;12844;52.110;5.548;2023-08-17T12:47:11;24.70;58.00
24744;DHT22;12844;52.110;5.548;2023-08-17T12:49:37;24.70;58.00
24744;DHT22;12844;52.110;5.548;2023-08-17T12:52:03;24.70;58.00
24744;DHT22;12844;52.110;5.548;2023-08-17T12:54:28;24.70;58.00
24744;DHT22;12844;52.110;5.548;2023-08-17T12:56:54;24.70;58.00
24744;DHT22;12844;52.110;5.548;2023-08-17T12:59:19;24.80;58.10
24744;DHT22;12844;52.110;5.548;2023-08-17T13:01:45;24.80;58.10
24744;DHT22;12844;52.110;5.548;2023-08-17T13:04:10;24.70;58.00
24744;DHT22;12844;52.110;5.548;2023-08-17T13:06:36;24.70;58.00
24744;DHT22;12844;52.110;5.548;2023-08-17T13:09:01;24.70;58.00
24744;DHT22;12844;52.110;5.548;2023-08-17T13:11:27;24.70;58.10
24744;DHT22;12844;52.110;5.548;2023-08-17T13:13:53;24.70;58.00
24744;DHT22;12844;52.110;5.548;2023-08-17T13:16:18;24.80;58.10
24744;DHT22;12844;52.110;5.548;2023-08-17T13:18:44;24.70;58.00
24744;DHT22;12844;52.110;5.548;2023-08-17T13:21:09;24.70;58.10
24744;DHT22;12844;52.110;5.548;2023-08-17T13:23:35;24.70;58.10
24744;DHT22;12844;52.110;5.548;2023-08-17T13:26:00;24.70;58.10
24744;DHT22;12844;52.110;5.548;2023-08-17T13:28:26;24.70;58.10
24744;DHT22;12844;52.110;5.548;2023-08-17T13:30:51;24.70;58.00
24744;DHT22;12844;52.110;5.548;2023-08-17T13:33:17;24.70;58.10
24744;DHT22;12844;52.110;5.548;2023-08-17T13:35:43;24.70;58.00
24744;DHT22;12844;52.110;5.548;2023-08-17T13:38:08;24.70;58.00
24744;DHT22;12844;52.110;5.548;2023-08-17T13:40:34;24.70;58.00
24744;DHT22;12844;52.110;5.548;2023-08-17T13:43:01;24.70;58.00
24744;DHT22;12844;52.110;5.548;2023-08-17T13:45:28;24.70;58.00
24744;DHT22;12844;52.110;5.548;2023-08-17T13:47:53;24.70;58.00
24744;DHT22;12844;52.110;5.548;2023-08-17T13:50:19;24.70;58.00
24744;DHT22;12844;52.110;5.548;2023-08-17T13:52:45;24.70;58.00
24744;DHT22;12844;52.110;5.548;2023-08-17T13:55:10;24.70;58.10
24744;DHT22;12844;52.110;5.548;2023-08-17T13:57:36;24.70;58.00
24744;DHT22;12844;52.110;5.548;2023-08-17T14:00:02;24.70;58.00
24744;DHT22;12844;52.110;5.548;2023-08-17T14:02:29;24.70;58.00
24744;DHT22;12844;52.110;5.548;2023-08-17T14:04:55;24.70;58.00
24744;DHT22;12844;52.110;5.548;2023-08-17T14:07:20;24.70;58.00
24744;DHT22;12844;52.110;5.548;2023-08-17T14:09:46;24.70;58.00
24744;DHT22;12844;52.110;5.548;2023-08-17T14:12:11;24.70;58.00
24744;DHT22;12844;52.110;5.548;2023-08-17T14:14:37;24.70;58.00
24744;DHT22;12844;52.110;5.548;2023-08-17T14:17:02;24.70;58.00
24744;DHT22;12844;52.110;5.548;2023-08-17T14:19:28;24.70;58.00
24744;DHT22;12844;52.110;5.548;2023-08-17T14:21:53;24.70;58.00
24744;DHT22;12844;52.110;5.548;2023-08-17T14:24:19;24.70;58.00
24744;DHT22;12844;52.110;5.548;2023-08-17T14:26:44;24.70;58.00
24744;DHT22;12844;52.110;5.548;2023-08-17T14:29:10;24.70;58.00
24744;DHT22;12844;52.110;5.548;2023-08-17T14:31:36;24.70;58.00
24744;DHT22;12844;52.110;5.548;2023-08-17T14:34:01;24.70;58.00
24744;DHT22;12844;52.110;5.548;2023-08-17T14:36:27;24.70;58.00
24744;DHT22;12844;52.110;5.548;2023-08-17T14:38:52;24.70;58.00
24744;DHT22;12844;52.110;5.548;2023-08-17T14:41:18;24.70;58.00
24744;DHT22;12844;52.110;5.548;2023-08-17T14:43:43;24.70;58.00
24744;DHT22;12844;52.110;5.548;2023-08-17T14:46:09;24.70;58.00
24744;DHT22;12844;52.110;5.548;2023-08-17T14:48:35;24.80;58.00
24744;DHT22;12844;52.110;5.548;2023-08-17T14:51:00;24.70;58.00
24744;DHT22;12844;52.110;5.548;2023-08-17T14:53:26;24.70;58.00
24744;DHT22;12844;52.110;5.548;2023-08-17T14:55:51;24.70;58.00
24744;DHT22;12844;52.110;5.548;2023-08-17T14:58:17;24.70;58.00
24744;DHT22;12844;52.110;5.548;2023-08-17T15:00:43;24.70;58.00
24744;DHT22;12844;52.110;5.548;2023-08-17T15:03:09;24.70;58.00
24744;DHT22;12844;52.110;5.548;2023-08-17T15:05:35;24.70;58.00
24744;DHT22;12844;52.110;5.548;2023-08-17T15:08:03;24.80;58.00
24744;DHT22;12844;52.110;5.548;2023-08-17T15:10:29;24.70;58.00
24744;DHT22;12844;52.110;5.548;2023-08-17T15:12:55;24.70;58.00
24744;DHT22;12844;52.110;5.548;2023-08-17T15:15:20;24.70;58.00
24744;DHT22;12844;52.110;5.548;2023-08-17T15:17:46;24.70;58.00
24744;DHT22;12844;52.110;5.548;2023-08-17T15:20:11;24.70;58.00
24744;DHT22;12844;52.110;5.548;2023-08-17T15:22:37;24.70;58.00
24744;DHT22;12844;52.110;5.548;2023-08-17T15:25:03;24.70;58.00
24744;DHT22;12844;52.110;5.548;2023-08-17T15:27:29;24.70;58.00
24744;DHT22;12844;52.110;5.548;2023-08-17T15:29:54;24.70;58.00
24744;DHT22;12844;52.110;5.548;2023-08-17T15:32:20;24.70;58.00
24744;DHT22;12844;52.110;5.548;2023-08-17T15:34:45;24.70;58.00
24744;DHT22;12844;52.110;5.548;2023-08-17T15:37:11;24.70;58.00